German Valley, Illinois
Current Conditions -  °F | °C
As of 6:55 PM on Friday 24 Oct 2014 (Local Time) from KFEP Reporting Station
Overcast Overcast  
Wind Chill: 58°   Ceiling: 3900
Heat Index: 58°   Visibility: 10mi
Dew Point: 47°   Wind: 7mph
Humidity: 65%   Direction: 190°S
Pressure: 29.94"   Gusts: NA
Location:  42.22°N, 89.47°W
Report Text: KFEP 242355Z AUTO 19006KT 10SM BKN039 BKN050 OVC070 15/08 A2994 RMK AO2 T01470082 10162 20125
Loading
Personal Weather Stations






























Interactive Weather Map
Tropical Storm Tracking
New forecast layout! Learn more

10-Day Weather Forecast

Advertisements
Track Severe Weather on mobile